Wasilla, AK (99623)

5:04 AM AKDT on October 20, 2014 (GMT -0800)
Kings Lake | Change Station
CLOSE
Current Station
Personal Weather Station
Location: Wasilla, AK
Elevation: 463 ft
Nearby Weather Stations

Elev 463 ft 61.62 °N, 149.37 °W | Updated 4 minutes ago

Overcast
Overcast
29.2 °F
Feels Like 29 °F
N
0.0
Wind Variable Wind from NNE
Gusts 0.0 mph

Today
High -- | Low -- °F
--% Chance of Precip.
Yesterday
High -- | Low -- °F
Precip. -- in
8:54 AM 6:28 PM
Waning Crescent, 11% visible
Pressure 28.95 in
Visibility 0.5 miles
Clouds Overcast 200 ft
Windchill 29 °F
Dew Point 27 °F
Humidity 90%
Rainfall 0.00 in
Snow Depth Not available.
UV 0 out of 12
Pollen Not available.
Air Quality Not available.
Flu Activity Sporadic
METAR PAWS 201256Z AUTO 00000KT 1/2SM OVC002 00/M03 A2895 RMK AO1

More Conditions Fewer Conditions

Pressure 28.95 in
Visibility 0.5 miles
Clouds Overcast 200 ft
Windchill 29 °F
Dew Point 27 °F
Humidity 90%
Rainfall 0.00 in
Snow Depth Not available.
UV 0 out of 12
Pollen Not available.
Air Quality Not available.
Flu Activity Sporadic
METAR PAWS 201256Z AUTO 00000KT 1/2SM OVC002 00/M03 A2895 RMK AO1

More Conditions Fewer Conditions

10-Day Weather Forecast

Almanac

Astronomy

Oct. 20, 2014 Rise Set
Actual Time 8:54 AM AKDT 6:28 PM AKDT
Civil Twilight 8:09 AM AKDT 7:13 PM AKDT
Nautical Twilight 7:18 AM AKDT 8:04 PM AKDT
Astronomical Twilight 6:27 AM AKDT 8:55 PM AKDT
Moon 5:03 AM AKDT 5:37 PM AKDT
Length of Visible Light 11h 04m
Length of Day
9h 33m
Waning Crescent, 11% of the Moon is Illuminated
Today
Waning Crescent
Oct 23
New
Oct 30
First Quarter
Nov 6
Full
Nov 14
Last Quarter

Today's Extremes

State Highs State Lows

Community

WunderPhotos

Upload Photos

1,763,363 photos uploaded!

Nearby

Snow Depth

Station Depth Elevation
Point Mackenzie 1 in 200 ft
Indian Pass 4 in 2300 ft
Susitna Valley High 0 in 375 ft
Turnagain Pass 4 in 1880 ft
Moraine 0 in 2100 ft

Earthquake Activity

City Distance Mag. Time & Date
No recent earthquake activity has been reported nearby.
Minimum magnitude displayed is 2.5.

Coastal Water Temperatures

Place Temperature
No Stations Reporting

Nearby Weather Stations